TimeCST,TemperatureF,Dew PointF,Humidity,Sea Level PressureIn,VisibilityMPH,Wind Direction,Wind SpeedMPH,Gust SpeedMPH,PrecipitationIn,Events,Conditions,WindDirDegrees,DateUTC
12:53 AM,55.0,42.1,62,30.19,10.0,NNE,16.1,27.6,N/A,,Overcast,30,2012-11-23 06:53:00
1:53 AM,52.0,30.0,43,30.23,10.0,NNE,23.0,29.9,N/A,,Mostly Cloudy,20,2012-11-23 07:53:00
2:53 AM,48.9,32.0,52,30.27,10.0,North,12.7,-,N/A,,Scattered Clouds,360,2012-11-23 08:53:00
3:53 AM,46.9,30.0,52,30.29,10.0,North,12.7,-,N/A,,Partly Cloudy,10,2012-11-23 09:53:00
4:53 AM,43.0,32.0,65,30.32,10.0,North,8.1,-,N/A,,Clear,360,2012-11-23 10:53:00
5:53 AM,39.0,32.0,76,30.33,10.0,NNW,4.6,-,N/A,,Clear,340,2012-11-23 11:53:00
6:53 AM,39.0,30.9,73,30.36,10.0,NW,5.8,-,N/A,,Clear,320,2012-11-23 12:53:00
7:53 AM,42.1,35.1,76,30.38,10.0,NW,9.2,-,N/A,,Clear,320,2012-11-23 13:53:00
8:53 AM,45.0,33.1,63,30.40,10.0,NNW,11.5,23.0,N/A,,Clear,330,2012-11-23 14:53:00
9:53 AM,45.0,26.1,48,30.42,10.0,North,21.9,26.5,N/A,,Clear,350,2012-11-23 15:53:00
10:53 AM,44.1,26.1,49,30.43,10.0,NW,15.0,25.3,N/A,,Clear,320,2012-11-23 16:53:00
11:53 AM,44.1,23.0,43,30.43,10.0,NW,11.5,24.2,N/A,,Clear,310,2012-11-23 17:53:00
12:53 PM,43.0,21.0,42,30.42,10.0,NW,16.1,25.3,N/A,,Clear,320,2012-11-23 18:53:00
1:53 PM,44.1,21.9,42,30.41,10.0,NW,12.7,-,N/A,,Clear,320,2012-11-23 19:53:00
2:53 PM,43.0,21.0,42,30.41,10.0,NW,15.0,23.0,N/A,,Clear,310,2012-11-23 20:53:00
3:53 PM,42.1,21.0,43,30.42,10.0,NW,9.2,-,N/A,,Clear,320,2012-11-23 21:53:00
4:53 PM,39.0,21.0,49,30.43,10.0,NW,12.7,-,N/A,,Clear,310,2012-11-23 22:53:00
5:53 PM,36.0,21.9,57,30.43,10.0,NW,6.9,-,N/A,,Clear,310,2012-11-23 23:53:00
6:53 PM,34.0,21.9,61,30.44,10.0,WNW,4.6,-,N/A,,Clear,300,2012-11-24 00:53:00
7:53 PM,33.1,21.9,64,30.44,10.0,NW,5.8,-,N/A,,Clear,310,2012-11-24 01:53:00
8:53 PM,30.9,21.9,69,30.44,10.0,NW,5.8,-,N/A,,Clear,320,2012-11-24 02:53:00
9:53 PM,30.9,21.0,67,30.44,10.0,NNW,6.9,-,N/A,,Clear,330,2012-11-24 03:53:00
10:53 PM,28.0,21.0,75,30.44,10.0,NNW,5.8,-,N/A,,Clear,330,2012-11-24 04:53:00
11:53 PM,28.9,21.0,72,30.43,10.0,Calm,Calm,-,N/A,,Clear,0,2012-11-24 05:53:00